createdAt,value
2023-05-12T00:01:24.369Z,17.20
2023-05-12T00:03:54.092Z,17.00
2023-05-12T00:06:22.263Z,15.10
2023-05-12T00:08:50.785Z,15.70
2023-05-12T00:11:18.777Z,16.70
2023-05-12T00:13:47.008Z,15.90
2023-05-12T00:16:17.739Z,13.70
2023-05-12T00:18:45.983Z,15.80
2023-05-12T00:21:13.755Z,16.00
2023-05-12T00:23:41.668Z,19.70
2023-05-12T00:26:09.476Z,16.40
2023-05-12T00:28:37.229Z,15.70
2023-05-12T00:31:05.962Z,10.60
2023-05-12T00:33:34.325Z,16.80
2023-05-12T00:36:03.709Z,14.70
2023-05-12T00:38:31.648Z,16.70
2023-05-12T00:40:59.376Z,16.30
2023-05-12T00:43:27.226Z,12.40
2023-05-12T00:45:55.590Z,14.00
2023-05-12T00:48:24.542Z,12.30
2023-05-12T00:50:52.425Z,16.20
2023-05-12T00:53:20.446Z,16.80
2023-05-12T00:55:48.275Z,15.10
2023-05-12T00:58:16.138Z,18.40
2023-05-12T01:00:44.146Z,14.50
2023-05-12T01:03:12.758Z,12.30
2023-05-12T01:06:00.458Z,18.50
2023-05-12T01:08:29.634Z,16.20
2023-05-12T01:10:57.335Z,17.50
2023-05-12T01:13:27.257Z,13.00
2023-05-12T01:15:58.631Z,13.80
2023-05-12T01:18:27.911Z,18.90
2023-05-12T01:20:57.035Z,16.40
2023-05-12T01:23:31.825Z,18.50
2023-05-12T01:26:06.918Z,17.30
2023-05-12T01:28:36.522Z,15.70
2023-05-12T01:31:06.720Z,18.50
2023-05-12T01:33:35.856Z,14.20
2023-05-12T01:36:04.281Z,14.00
2023-05-12T01:38:32.555Z,13.10
2023-05-12T01:41:00.386Z,17.70
2023-05-12T01:43:28.354Z,16.20
2023-05-12T01:45:56.153Z,14.70
2023-05-12T01:48:24.019Z,17.60
2023-05-12T01:50:52.423Z,14.70
2023-05-12T01:53:20.891Z,13.50
2023-05-12T01:55:48.705Z,15.10
2023-05-12T01:58:16.539Z,16.50
2023-05-12T02:00:44.345Z,11.60
2023-05-12T02:03:12.310Z,16.00
2023-05-12T02:05:40.761Z,8.90
2023-05-12T02:08:09.467Z,19.90
2023-05-12T02:10:37.401Z,14.80
2023-05-12T02:13:05.305Z,13.30
2023-05-12T02:15:33.049Z,14.90
2023-05-12T02:18:01.600Z,20.90
2023-05-12T02:20:30.069Z,13.30
2023-05-12T02:22:57.878Z,13.20
2023-05-12T02:25:26.030Z,16.00
2023-05-12T02:27:53.795Z,15.80
2023-05-12T02:30:21.835Z,14.10
2023-05-12T02:32:50.767Z,12.00
2023-05-12T02:35:19.195Z,14.90
2023-05-12T02:37:47.008Z,16.40
2023-05-12T02:40:14.911Z,12.10
2023-05-12T02:42:43.696Z,12.50
2023-05-12T02:45:12.099Z,12.50
2023-05-12T02:47:40.712Z,13.80
2023-05-12T02:50:09.716Z,15.40
2023-05-12T02:52:37.501Z,13.20
2023-05-12T02:55:05.474Z,16.10
2023-05-12T02:57:34.377Z,14.30
2023-05-12T03:00:06.441Z,15.40
2023-05-12T03:02:36.624Z,15.90
2023-05-12T03:05:06.050Z,14.60
2023-05-12T03:07:33.781Z,14.70
2023-05-12T03:10:04.378Z,16.90
2023-05-12T03:12:32.503Z,16.20
2023-05-12T03:15:00.862Z,15.00
2023-05-12T03:17:29.166Z,14.80
2023-05-12T03:19:57.006Z,14.90
2023-05-12T03:22:24.925Z,20.70
2023-05-12T03:24:53.083Z,19.60
2023-05-12T03:27:21.048Z,21.50
2023-05-12T03:29:49.760Z,19.70
2023-05-12T03:32:18.338Z,19.40
2023-05-12T03:34:48.994Z,17.20
2023-05-12T03:37:17.199Z,21.80
2023-05-12T03:39:44.971Z,17.10
2023-05-12T03:42:14.080Z,20.20
2023-05-12T03:44:42.848Z,17.90
2023-05-12T03:47:11.463Z,17.20
2023-05-12T03:49:39.350Z,20.40
2023-05-12T03:52:07.510Z,16.30
2023-05-12T03:54:37.209Z,16.40
2023-05-12T03:57:06.745Z,17.90
2023-05-12T03:59:34.476Z,15.00
2023-05-12T04:02:02.883Z,14.00
2023-05-12T04:04:30.852Z,16.50
2023-05-12T04:06:59.831Z,16.70
2023-05-12T04:09:28.045Z,19.70
2023-05-12T04:11:55.880Z,18.70
2023-05-12T04:14:31.817Z,18.30
2023-05-12T04:17:07.954Z,19.20
2023-05-12T04:19:35.963Z,19.00
2023-05-12T04:22:03.902Z,15.70
2023-05-12T04:24:31.647Z,16.50
2023-05-12T04:27:08.998Z,18.50
2023-05-12T04:29:37.247Z,18.20
2023-05-12T04:32:05.759Z,16.20
2023-05-12T04:34:34.432Z,16.20
2023-05-12T04:37:02.230Z,20.30
2023-05-12T04:39:30.658Z,18.40
2023-05-12T04:42:06.022Z,17.00
2023-05-12T04:44:33.887Z,19.00
2023-05-12T04:47:09.530Z,18.80
2023-05-12T04:49:37.871Z,15.60
2023-05-12T04:52:06.042Z,16.00
2023-05-12T04:54:33.796Z,15.90
2023-05-12T04:57:01.589Z,16.00
2023-05-12T04:59:29.698Z,23.00
2023-05-12T05:01:58.283Z,16.90
2023-05-12T05:04:26.263Z,14.50
2023-05-12T05:06:55.771Z,17.70
2023-05-12T05:09:23.658Z,16.30
2023-05-12T05:11:51.442Z,16.30
2023-05-12T05:14:19.298Z,15.20
2023-05-12T05:16:50.837Z,19.10
2023-05-12T05:19:24.408Z,18.00
2023-05-12T05:21:57.937Z,14.10
2023-05-12T05:24:25.741Z,12.40
2023-05-12T05:27:01.224Z,15.80
2023-05-12T05:29:32.080Z,10.00
2023-05-12T05:31:59.864Z,15.60
2023-05-12T05:34:30.362Z,13.50
2023-05-12T05:36:58.186Z,15.40
2023-05-12T05:39:26.120Z,16.70
2023-05-12T05:41:54.019Z,13.60
2023-05-12T05:44:22.244Z,18.70
2023-05-12T05:46:50.095Z,11.50
2023-05-12T05:49:29.600Z,16.30
2023-05-12T05:51:57.342Z,16.20
2023-05-12T05:54:25.799Z,18.30
2023-05-12T05:56:53.565Z,12.20
2023-05-12T05:59:21.332Z,13.10
2023-05-12T06:01:49.393Z,15.90
2023-05-12T06:04:25.029Z,16.70
2023-05-12T06:06:53.606Z,13.20
2023-05-12T06:09:22.097Z,16.30
2023-05-12T06:11:50.549Z,14.50
2023-05-12T06:14:18.354Z,15.60
2023-05-12T06:16:46.567Z,11.40
2023-05-12T06:19:15.777Z,12.10
2023-05-12T06:21:47.187Z,13.20
2023-05-12T06:24:14.958Z,11.90
2023-05-12T06:26:42.945Z,13.70
2023-05-12T06:29:10.757Z,19.10
2023-05-12T06:31:40.882Z,14.80
2023-05-12T06:34:09.200Z,13.30
2023-05-12T06:36:37.518Z,10.90
2023-05-12T06:39:12.096Z,12.70
2023-05-12T06:41:40.342Z,13.60
2023-05-12T06:44:12.715Z,13.10
2023-05-12T06:46:41.495Z,8.10
2023-05-12T06:49:12.907Z,11.90
2023-05-12T06:51:40.828Z,13.50
2023-05-12T06:54:08.924Z,17.00
2023-05-12T06:56:38.912Z,14.90
2023-05-12T06:59:07.106Z,14.30
2023-05-12T07:01:35.544Z,14.80
2023-05-12T07:04:03.829Z,11.90
2023-05-12T07:06:32.477Z,11.70
2023-05-12T07:09:04.892Z,13.20
2023-05-12T07:11:33.251Z,9.10
2023-05-12T07:14:01.609Z,16.70
2023-05-12T07:16:29.478Z,11.20
2023-05-12T07:18:57.292Z,9.50
2023-05-12T07:21:34.834Z,16.40
2023-05-12T07:24:06.333Z,16.20
2023-05-12T07:26:34.743Z,11.20
2023-05-12T07:29:04.055Z,10.80
2023-05-12T07:31:32.291Z,13.90
2023-05-12T07:34:02.931Z,12.40
2023-05-12T07:36:34.462Z,11.40
2023-05-12T07:39:02.772Z,16.20
2023-05-12T07:41:31.993Z,10.80
2023-05-12T07:44:02.657Z,10.00
2023-05-12T07:46:30.517Z,12.60
2023-05-12T07:48:58.329Z,10.40
2023-05-12T07:51:26.659Z,9.10
2023-05-12T07:53:58.240Z,12.70
2023-05-12T07:56:26.130Z,11.30
2023-05-12T07:58:54.031Z,11.90
2023-05-12T08:01:24.832Z,13.80
2023-05-12T08:03:52.797Z,9.70
2023-05-12T08:06:21.508Z,9.30
2023-05-12T08:08:49.955Z,10.70
2023-05-12T08:11:17.826Z,13.00
2023-05-12T08:13:45.756Z,7.40
2023-05-12T08:16:13.575Z,9.60
2023-05-12T08:18:41.493Z,11.10
2023-05-12T08:21:10.447Z,7.30
2023-05-12T08:23:38.902Z,11.00
2023-05-12T08:26:09.835Z,9.40
2023-05-12T08:28:37.759Z,11.10
2023-05-12T08:31:05.745Z,13.10
2023-05-12T08:33:36.884Z,8.00
2023-05-12T08:36:04.960Z,10.70
2023-05-12T08:38:33.623Z,9.20
2023-05-12T08:41:13.763Z,7.80
2023-05-12T08:43:44.587Z,12.10
2023-05-12T08:46:13.242Z,8.00
2023-05-12T08:48:41.972Z,9.70
2023-05-12T08:51:12.005Z,9.70
2023-05-12T08:53:42.014Z,7.20
2023-05-12T08:58:45.870Z,7.00
2023-05-12T09:01:16.232Z,13.10
2023-05-12T09:03:45.072Z,9.70
2023-05-12T09:06:13.467Z,6.00
2023-05-12T09:08:44.055Z,6.00
2023-05-12T09:11:13.650Z,10.20
2023-05-12T09:14:01.108Z,8.60
2023-05-12T09:16:35.910Z,11.20
2023-05-12T09:19:07.161Z,8.50
2023-05-12T09:21:35.397Z,12.20
2023-05-12T09:24:06.782Z,8.00
2023-05-12T09:26:54.493Z,7.40
2023-05-12T09:29:31.215Z,6.50
2023-05-12T09:32:03.539Z,9.40
2023-05-12T09:34:35.630Z,6.40
2023-05-12T09:37:06.749Z,11.30
2023-05-12T09:39:36.524Z,6.90
2023-05-12T09:42:12.469Z,5.40
2023-05-12T09:44:41.384Z,6.60
2023-05-12T09:47:10.687Z,4.30
2023-05-12T09:49:39.241Z,65.90
2023-05-12T09:52:07.072Z,5.50
2023-05-12T09:54:35.006Z,8.30
2023-05-12T09:57:07.665Z,8.00
2023-05-12T09:59:38.665Z,7.40
2023-05-12T10:02:09.727Z,8.30
2023-05-12T10:04:48.128Z,7.30
2023-05-12T10:07:17.410Z,6.50
2023-05-12T10:09:48.519Z,8.40
2023-05-12T10:12:17.167Z,6.70
2023-05-12T10:14:45.915Z,4.30
2023-05-12T10:17:15.727Z,8.60
2023-05-12T10:19:44.593Z,9.00
2023-05-12T10:22:16.213Z,9.30
2023-05-12T10:24:45.914Z,5.00
2023-05-12T10:27:17.553Z,4.90
2023-05-12T10:29:47.008Z,8.40
2023-05-12T10:32:17.963Z,7.40
2023-05-12T10:34:46.030Z,9.50
2023-05-12T10:37:13.902Z,13.40
2023-05-12T10:39:50.681Z,8.60
2023-05-12T10:42:27.050Z,7.80
2023-05-12T10:44:56.437Z,8.30
2023-05-12T10:47:37.399Z,7.40
2023-05-12T10:50:06.537Z,11.00
2023-05-12T10:52:34.825Z,9.70
2023-05-12T10:55:04.543Z,8.00
2023-05-12T10:57:33.754Z,4.40
2023-05-12T11:00:04.080Z,8.70
2023-05-12T11:02:36.313Z,10.10
2023-05-12T11:05:14.050Z,5.20
2023-05-12T11:07:50.190Z,8.80
2023-05-12T11:10:19.496Z,11.10
2023-05-12T11:12:47.963Z,10.00
2023-05-12T11:15:18.116Z,8.70
2023-05-12T11:17:46.744Z,13.20
2023-05-12T11:20:33.336Z,7.30
2023-05-12T11:23:01.070Z,6.40
2023-05-12T11:25:28.937Z,9.80
2023-05-12T11:27:57.202Z,5.80
2023-05-12T11:30:24.992Z,6.00
2023-05-12T11:33:03.681Z,12.40
2023-05-12T11:35:32.633Z,10.50
2023-05-12T11:38:02.979Z,5.50
2023-05-12T11:40:31.932Z,5.90
2023-05-12T11:43:10.153Z,5.30
2023-05-12T11:45:38.797Z,7.50
2023-05-12T11:48:12.112Z,5.20
2023-05-12T11:50:42.304Z,7.50
2023-05-12T11:53:13.657Z,6.60
2023-05-12T11:55:55.841Z,5.70
2023-05-12T11:58:26.820Z,6.30
2023-05-12T12:00:57.360Z,11.60
2023-05-12T12:03:25.323Z,7.30
2023-05-12T12:06:01.929Z,7.10
2023-05-12T12:08:31.892Z,11.20
2023-05-12T12:11:02.800Z,9.00
2023-05-12T12:13:31.668Z,9.40
2023-05-12T12:15:59.480Z,14.00
2023-05-12T12:18:27.467Z,6.30
2023-05-12T12:20:55.393Z,7.30
2023-05-12T12:23:23.574Z,12.30
2023-05-12T12:25:52.083Z,10.70
2023-05-12T12:28:20.633Z,9.80
2023-05-12T12:30:48.674Z,5.60
2023-05-12T12:33:18.724Z,13.30
2023-05-12T12:35:48.147Z,17.20
2023-05-12T12:38:16.950Z,6.90
2023-05-12T12:40:47.887Z,7.70
2023-05-12T12:43:15.654Z,8.50
2023-05-12T12:45:43.346Z,5.30
2023-05-12T12:48:11.096Z,8.20
2023-05-12T12:50:39.642Z,6.60
2023-05-12T12:53:07.948Z,10.60
2023-05-12T12:55:36.023Z,9.70
2023-05-12T12:58:03.830Z,8.80
2023-05-12T13:00:31.573Z,9.00
2023-05-12T13:02:59.567Z,11.80
2023-05-12T13:05:27.870Z,10.50
2023-05-12T13:07:56.554Z,10.10
2023-05-12T13:10:25.446Z,12.00
2023-05-12T13:12:53.732Z,5.80
2023-05-12T13:15:22.013Z,8.10
2023-05-12T13:17:50.661Z,8.20
2023-05-12T13:20:19.455Z,7.60
2023-05-12T13:22:47.854Z,6.30
2023-05-12T13:25:18.892Z,9.60
2023-05-12T13:27:46.973Z,6.10
2023-05-12T13:30:15.481Z,12.00
2023-05-12T13:32:43.820Z,6.40
2023-05-12T13:35:17.409Z,6.60
2023-05-12T13:38:12.710Z,7.60
2023-05-12T13:40:41.643Z,7.60
2023-05-12T13:43:10.018Z,6.80
2023-05-12T13:45:38.331Z,7.30
2023-05-12T13:48:06.595Z,5.30
2023-05-12T13:50:34.528Z,6.90
2023-05-12T13:53:02.431Z,7.70
2023-05-12T13:55:40.820Z,10.70
2023-05-12T13:58:09.333Z,12.20
2023-05-12T14:00:40.513Z,7.70
2023-05-12T14:03:08.410Z,5.90
2023-05-12T14:05:36.505Z,9.00
2023-05-12T14:08:04.630Z,7.90
2023-05-12T14:10:35.389Z,10.10
2023-05-12T14:13:03.842Z,10.10
2023-05-12T14:15:44.672Z,30.10
2023-05-12T14:18:16.900Z,9.40
2023-05-12T14:20:45.363Z,5.30
2023-05-12T14:23:14.337Z,8.10
2023-05-12T14:25:42.743Z,16.80
2023-05-12T14:28:10.704Z,5.90
2023-05-12T14:30:38.838Z,8.80
2023-05-12T14:33:06.734Z,5.90
2023-05-12T14:35:35.115Z,9.00
2023-05-12T14:38:03.402Z,6.10
2023-05-12T14:40:31.201Z,7.90
2023-05-12T14:43:00.191Z,10.90
2023-05-12T14:45:28.439Z,7.10
2023-05-12T14:47:56.976Z,8.50
2023-05-12T14:50:25.464Z,7.40
2023-05-12T14:52:53.216Z,5.70
2023-05-12T14:55:21.411Z,8.90
2023-05-12T14:57:49.743Z,6.60
2023-05-12T15:00:19.101Z,8.20
2023-05-12T15:02:47.910Z,5.90
2023-05-12T15:05:16.319Z,8.00
2023-05-12T15:07:44.155Z,8.40
2023-05-12T15:10:22.881Z,11.00
2023-05-12T15:12:51.306Z,10.00
2023-05-12T15:15:19.832Z,9.70
2023-05-12T15:17:47.982Z,6.20
2023-05-12T15:20:15.888Z,7.60
2023-05-12T15:22:43.811Z,9.00
2023-05-12T15:25:11.747Z,11.10
2023-05-12T15:27:39.913Z,9.60
2023-05-12T15:30:09.020Z,11.20
2023-05-12T15:32:39.651Z,6.80
2023-05-12T15:35:08.696Z,11.60
2023-05-12T15:37:36.953Z,5.20
2023-05-12T15:40:05.460Z,9.80
2023-05-12T15:42:33.807Z,7.00
2023-05-12T15:45:02.312Z,7.30
2023-05-12T15:47:30.614Z,5.90
2023-05-12T15:49:58.521Z,13.50
2023-05-12T15:52:27.997Z,5.60
2023-05-12T15:54:56.118Z,12.60
2023-05-12T15:57:27.751Z,6.90
2023-05-12T15:59:59.945Z,9.10
2023-05-12T16:02:28.256Z,6.90
2023-05-12T16:04:56.166Z,8.10
2023-05-12T16:07:29.457Z,10.00
2023-05-12T16:12:29.139Z,9.50
2023-05-12T16:14:57.018Z,7.20
2023-05-12T16:17:24.848Z,4.90
2023-05-12T16:19:53.742Z,12.70
2023-05-12T16:22:22.159Z,9.50
2023-05-12T16:24:50.676Z,6.50
2023-05-12T16:27:18.452Z,12.00
2023-05-12T16:29:48.188Z,10.70
2023-05-12T16:32:17.245Z,9.70
2023-05-12T16:34:45.796Z,7.60
2023-05-12T16:37:14.063Z,9.40
2023-05-12T16:39:42.773Z,10.00
2023-05-12T16:42:10.616Z,6.40
2023-05-12T16:44:38.555Z,6.70
2023-05-12T16:47:07.138Z,5.30
2023-05-12T16:49:35.317Z,10.20
2023-05-12T16:52:03.297Z,7.00
2023-05-12T16:54:32.856Z,5.70
2023-05-12T16:57:02.239Z,8.50
2023-05-12T16:59:32.543Z,8.60
2023-05-12T17:02:01.406Z,7.70
2023-05-12T17:04:29.803Z,5.90
2023-05-12T17:06:58.133Z,5.60
2023-05-12T17:09:25.882Z,7.10
2023-05-12T17:11:53.705Z,7.50
2023-05-12T17:14:21.946Z,7.10
2023-05-12T17:16:50.398Z,14.00
2023-05-12T17:19:18.754Z,7.40
2023-05-12T17:21:46.648Z,14.40
2023-05-12T17:24:14.485Z,11.80
2023-05-12T17:26:42.319Z,5.50
2023-05-12T17:29:10.076Z,9.80
2023-05-12T17:31:39.348Z,9.80
2023-05-12T17:34:07.346Z,9.10
2023-05-12T17:36:35.587Z,9.90
2023-05-12T17:39:03.854Z,6.90
2023-05-12T17:41:31.672Z,7.00
2023-05-12T17:43:59.926Z,8.10
2023-05-12T17:46:28.259Z,9.00
2023-05-12T17:48:56.189Z,8.00
2023-05-12T17:51:24.023Z,5.70
2023-05-12T17:53:51.792Z,8.40
2023-05-12T17:56:20.178Z,7.40
2023-05-12T17:58:48.198Z,11.90
2023-05-12T18:01:16.503Z,9.50
2023-05-12T18:03:44.399Z,12.70
2023-05-12T18:06:12.977Z,5.70
2023-05-12T18:08:41.450Z,11.00
2023-05-12T18:11:09.226Z,12.50
2023-05-12T18:13:37.091Z,7.70
2023-05-12T18:16:07.416Z,10.10
2023-05-12T18:18:37.016Z,7.60
2023-05-12T18:21:05.040Z,11.00
2023-05-12T18:23:33.357Z,6.30
2023-05-12T18:26:01.268Z,8.60
2023-05-12T18:28:29.218Z,6.50
2023-05-12T18:31:06.063Z,10.50
2023-05-12T18:33:47.579Z,11.40
2023-05-12T18:36:16.893Z,10.60
2023-05-12T18:38:48.071Z,10.70
2023-05-12T18:41:16.786Z,13.70
2023-05-12T18:43:44.880Z,12.90
2023-05-12T18:46:15.870Z,15.70
2023-05-12T18:48:43.695Z,14.80
2023-05-12T18:51:11.679Z,11.50
2023-05-12T18:53:39.537Z,15.70
2023-05-12T18:56:07.523Z,11.30
2023-05-12T18:58:36.314Z,11.70
2023-05-12T19:01:05.295Z,18.30
2023-05-12T19:03:37.478Z,18.70
2023-05-12T19:06:05.312Z,14.20
2023-05-12T19:08:36.502Z,14.60
2023-05-12T19:11:04.351Z,14.20
2023-05-12T19:13:32.745Z,15.40
2023-05-12T19:16:00.783Z,13.50
2023-05-12T19:18:28.603Z,12.20
2023-05-12T19:20:57.037Z,12.40
2023-05-12T19:23:24.908Z,12.50
2023-05-12T19:25:52.709Z,17.30
2023-05-12T19:28:20.927Z,13.50
2023-05-12T19:30:48.752Z,12.60
2023-05-12T19:33:24.742Z,13.70
2023-05-12T19:35:58.412Z,14.40
2023-05-12T19:38:26.815Z,14.40
2023-05-12T19:40:55.748Z,11.50
2023-05-12T19:43:23.616Z,15.60
2023-05-12T19:45:51.525Z,14.00
2023-05-12T19:48:20.181Z,13.10
2023-05-12T19:50:47.989Z,15.20
2023-05-12T19:53:19.071Z,13.20
2023-05-12T19:55:46.919Z,10.90
2023-05-12T19:58:14.683Z,12.90
2023-05-12T20:00:54.492Z,13.30
2023-05-12T20:03:23.231Z,12.10
2023-05-12T20:05:51.264Z,12.40
2023-05-12T20:08:19.164Z,15.40
2023-05-12T20:10:47.131Z,14.10
2023-05-12T20:13:14.978Z,15.30
2023-05-12T20:15:46.349Z,16.90
2023-05-12T20:18:15.804Z,17.80
2023-05-12T20:20:49.083Z,18.30
2023-05-12T20:23:16.961Z,16.80
2023-05-12T20:25:44.777Z,18.80
2023-05-12T20:28:13.299Z,15.80
2023-05-12T20:30:41.908Z,22.10
2023-05-12T20:33:09.713Z,17.90
2023-05-12T20:35:37.548Z,18.20
2023-05-12T20:38:10.120Z,22.10
2023-05-12T20:40:43.052Z,14.80
2023-05-12T20:43:13.565Z,21.20
2023-05-12T20:45:49.727Z,21.30
2023-05-12T20:48:25.400Z,21.90
2023-05-12T20:50:55.707Z,22.30
2023-05-12T20:53:29.089Z,21.70
2023-05-12T20:55:57.099Z,22.00
2023-05-12T20:58:30.220Z,21.20
2023-05-12T21:00:59.088Z,20.50
2023-05-12T21:03:30.382Z,19.70
2023-05-12T21:06:01.414Z,20.40
2023-05-12T21:08:29.328Z,23.70
2023-05-12T21:11:00.178Z,20.60
2023-05-12T21:13:32.599Z,19.10
2023-05-12T21:16:01.022Z,22.40
2023-05-12T21:18:29.257Z,21.90
2023-05-12T21:20:57.015Z,19.30
2023-05-12T21:23:24.873Z,22.70
2023-05-12T21:25:53.539Z,22.30
2023-05-12T21:28:21.502Z,20.40
2023-05-12T21:30:53.167Z,22.50
2023-05-12T21:33:21.017Z,23.50
2023-05-12T21:35:50.061Z,21.20
2023-05-12T21:38:17.938Z,17.70
2023-05-12T21:40:50.415Z,18.20
2023-05-12T21:43:19.152Z,24.30
2023-05-12T21:45:47.077Z,21.90
2023-05-12T21:48:15.481Z,23.30
2023-05-12T21:50:43.239Z,24.80
2023-05-12T21:53:11.004Z,21.20
2023-05-12T21:55:41.805Z,20.50
2023-05-12T21:58:10.461Z,24.60
2023-05-12T22:00:38.654Z,22.00
2023-05-12T22:03:08.702Z,21.90
2023-05-12T22:05:36.655Z,24.40
2023-05-12T22:08:04.716Z,20.70
2023-05-12T22:10:32.473Z,23.70
2023-05-12T22:13:00.236Z,25.00
2023-05-12T22:15:28.021Z,23.10
2023-05-12T22:17:55.971Z,21.20
2023-05-12T22:20:24.340Z,20.50
2023-05-12T22:22:52.188Z,22.50
2023-05-12T22:25:20.279Z,20.80
2023-05-12T22:27:48.113Z,20.80
2023-05-12T22:30:16.619Z,21.00
2023-05-12T22:32:45.114Z,24.70
2023-05-12T22:35:13.172Z,21.40
2023-05-12T22:37:41.136Z,21.00
2023-05-12T22:40:09.812Z,21.80
2023-05-12T22:42:37.573Z,21.40
2023-05-12T22:45:06.189Z,21.10
2023-05-12T22:47:34.134Z,21.50
2023-05-12T22:50:02.028Z,22.80
2023-05-12T22:52:29.926Z,24.50
2023-05-12T22:54:57.779Z,23.90
2023-05-12T22:57:25.942Z,24.30
2023-05-12T22:59:53.924Z,20.40
2023-05-12T23:02:21.963Z,20.70
2023-05-12T23:04:49.829Z,20.30
2023-05-12T23:07:17.758Z,21.50
2023-05-12T23:09:45.860Z,20.40
2023-05-12T23:12:13.713Z,22.40
2023-05-12T23:14:41.638Z,21.90
2023-05-12T23:17:09.938Z,23.90
2023-05-12T23:19:37.954Z,19.30
2023-05-12T23:22:08.769Z,19.60
2023-05-12T23:24:36.716Z,20.00
2023-05-12T23:27:05.277Z,21.70
2023-05-12T23:29:34.674Z,20.40
2023-05-12T23:32:03.218Z,20.50
2023-05-12T23:34:31.078Z,21.50
2023-05-12T23:36:58.880Z,24.50
2023-05-12T23:39:26.908Z,25.20
2023-05-12T23:41:55.388Z,23.50
2023-05-12T23:44:23.716Z,23.70
2023-05-12T23:46:52.271Z,21.50
2023-05-12T23:49:20.371Z,22.00
2023-05-12T23:51:48.153Z,22.70
2023-05-12T23:54:15.966Z,24.60
2023-05-12T23:56:44.288Z,24.00
2023-05-12T23:59:12.462Z,23.50
